Terminal Aerodrome Forecast
Issued by NWS

Home | Current Version | Previous Version | Graphics & Text | Print | Product List | Glossary On
Versions: 1 2 3 4 5 6 7 8 9 10 11 12 13 14 15
000
FTUS43 KMPX 241135
TAFAXN
TAF
KAXN 241135Z 2412/2512 02015G25KT P6SM OVC150
     FM242000 36015G25KT P6SM SCT200
     FM251000 33010KT P6SM SCT250=

USA.gov is the U.S. government's official web portal to all federal, state and local government web resources and services.